createdAt,value
2023-01-23T00:01:48.744Z,1.04
2023-01-23T00:06:53.238Z,1.02
2023-01-23T00:11:56.222Z,1.01
2023-01-23T00:16:59.512Z,1.04
2023-01-23T00:22:04.174Z,1.04
2023-01-23T00:27:07.214Z,1.05
2023-01-23T00:32:10.330Z,1.07
2023-01-23T00:37:14.971Z,0.98
2023-01-23T00:42:19.273Z,1.07
2023-01-23T00:47:22.270Z,1.08
2023-01-23T00:52:27.533Z,1.07
2023-01-23T00:57:32.751Z,1.09
2023-01-23T01:02:43.920Z,1.07
2023-01-23T01:07:55.504Z,1.08
2023-01-23T01:12:59.689Z,1.04
2023-01-23T01:18:03.851Z,1.08
2023-01-23T01:23:08.365Z,1.05
2023-01-23T01:28:11.550Z,0.97
2023-01-23T01:33:14.690Z,0.93
2023-01-23T01:38:19.068Z,0.93
2023-01-23T01:43:26.699Z,0.94
2023-01-23T01:48:33.483Z,0.95
2023-01-23T01:53:38.983Z,0.94
2023-01-23T01:58:46.001Z,0.98
2023-01-23T02:03:52.375Z,0.97
2023-01-23T02:09:02.657Z,0.98
2023-01-23T02:14:06.234Z,1.01
2023-01-23T02:19:20.213Z,1.01
2023-01-23T02:24:33.351Z,1.02
2023-01-23T02:29:45.958Z,0.98
2023-01-23T02:34:50.048Z,0.97
2023-01-23T02:39:53.409Z,0.95
2023-01-23T02:44:59.758Z,1.03
2023-01-23T02:50:02.831Z,1.01
2023-01-23T02:55:06.743Z,1.00
2023-01-23T03:00:20.685Z,1.04
2023-01-23T03:05:24.083Z,0.99
2023-01-23T03:10:30.683Z,1.05
2023-01-23T03:15:38.466Z,1.06
2023-01-23T03:20:42.075Z,1.03
2023-01-23T03:25:45.603Z,1.02
2023-01-23T03:30:50.025Z,0.95
2023-01-23T03:35:53.173Z,0.96
2023-01-23T03:41:13.997Z,0.96
2023-01-23T03:46:18.917Z,0.94
2023-01-23T03:51:22.326Z,0.95
2023-01-23T03:56:26.918Z,0.99
2023-01-23T04:01:33.491Z,0.99
2023-01-23T04:06:36.806Z,0.98
2023-01-23T04:11:39.980Z,0.96
2023-01-23T04:16:45.783Z,0.94
2023-01-23T04:21:50.205Z,0.96
2023-01-23T04:26:53.248Z,0.96
2023-01-23T04:31:57.942Z,0.94
2023-01-23T04:37:06.121Z,0.99
2023-01-23T04:42:10.373Z,1.00
2023-01-23T04:47:33.544Z,1.01
2023-01-23T04:52:39.229Z,1.00
2023-01-23T04:57:42.618Z,0.99
2023-01-23T05:03:09.512Z,0.99
2023-01-23T05:08:20.996Z,1.01
2023-01-23T05:13:32.787Z,1.03
2023-01-23T05:18:37.781Z,1.05
2023-01-23T05:23:41.241Z,1.12
2023-01-23T05:28:44.447Z,1.17
2023-01-23T05:33:48.962Z,1.15
2023-01-23T05:38:52.038Z,1.14
2023-01-23T05:43:59.803Z,1.18
2023-01-23T05:49:23.051Z,1.18
2023-01-23T05:54:27.435Z,1.22
2023-01-23T05:59:30.305Z,1.23
2023-01-23T06:04:47.989Z,1.28
2023-01-23T06:10:00.403Z,1.30
2023-01-23T06:15:03.552Z,1.33
2023-01-23T06:20:11.098Z,1.36
2023-01-23T06:25:15.897Z,1.39
2023-01-23T06:30:20.235Z,1.36
2023-01-23T06:35:27.004Z,1.37
2023-01-23T06:40:31.392Z,1.31
2023-01-23T06:45:57.831Z,1.30
2023-01-23T06:51:03.206Z,1.33
2023-01-23T06:56:08.865Z,1.29
2023-01-23T07:01:16.342Z,1.26
2023-01-23T07:06:53.234Z,1.22
2023-01-23T07:11:57.050Z,1.22
2023-01-23T07:17:03.075Z,1.22
2023-01-23T07:22:08.482Z,1.23
2023-01-23T07:27:11.651Z,1.24
2023-01-23T07:32:14.598Z,1.33
2023-01-23T07:37:19.017Z,1.43
2023-01-23T07:42:22.112Z,1.55
2023-01-23T07:47:25.371Z,1.57
2023-01-23T07:52:30.116Z,1.54
2023-01-23T07:57:34.068Z,1.58
2023-01-23T08:02:37.814Z,1.61
2023-01-23T08:07:42.394Z,1.63
2023-01-23T08:12:46.676Z,1.68
2023-01-23T08:17:49.687Z,1.71
2023-01-23T08:22:54.088Z,1.74
2023-01-23T08:27:57.187Z,1.77
2023-01-23T08:33:01.130Z,1.79
2023-01-23T08:38:08.351Z,1.85
2023-01-23T08:43:13.986Z,2.02
2023-01-23T08:48:17.595Z,2.13
2023-01-23T08:53:23.447Z,2.19
2023-01-23T08:58:26.865Z,2.28
2023-01-23T09:03:29.839Z,2.40
2023-01-23T09:08:36.086Z,2.40
2023-01-23T09:13:39.601Z,2.38
2023-01-23T09:18:43.117Z,2.36
2023-01-23T09:23:47.985Z,2.38
2023-01-23T09:28:51.034Z,2.46
2023-01-23T09:33:54.061Z,2.51
2023-01-23T09:38:58.610Z,2.58
2023-01-23T09:44:07.683Z,2.66
2023-01-23T09:49:15.496Z,2.77
2023-01-23T09:54:32.387Z,2.80
2023-01-23T09:59:50.185Z,2.84
2023-01-23T10:05:03.864Z,2.98
2023-01-23T10:10:28.505Z,3.06
2023-01-23T10:15:43.131Z,3.05
2023-01-23T10:21:03.642Z,3.17
2023-01-23T10:26:16.306Z,3.34
2023-01-23T10:31:30.384Z,3.52
2023-01-23T10:36:47.956Z,3.53
2023-01-23T10:42:02.916Z,3.61
2023-01-23T10:47:18.411Z,3.89
2023-01-23T10:52:37.327Z,4.18
2023-01-23T10:57:49.673Z,4.25
2023-01-23T11:02:52.801Z,4.36
2023-01-23T11:07:56.320Z,4.22
2023-01-23T11:13:01.104Z,4.17
2023-01-23T11:18:23.813Z,4.22
2023-01-23T11:23:27.300Z,4.32
2023-01-23T11:28:35.548Z,4.36
2023-01-23T11:33:44.409Z,4.37
2023-01-23T11:38:53.102Z,4.47
2023-01-23T11:43:58.012Z,4.53
2023-01-23T11:49:23.116Z,4.44
2023-01-23T11:54:42.164Z,4.40
2023-01-23T12:00:02.378Z,4.31
2023-01-23T12:06:09.663Z,4.30
2023-01-23T12:11:22.380Z,4.42
2023-01-23T12:16:37.585Z,4.35
2023-01-23T12:21:50.885Z,4.42
2023-01-23T12:27:02.876Z,4.37
2023-01-23T12:32:26.777Z,4.37
2023-01-23T12:37:46.351Z,4.41
2023-01-23T12:42:56.886Z,4.41
2023-01-23T12:48:08.632Z,4.62
2023-01-23T12:53:13.592Z,4.71
2023-01-23T12:58:19.107Z,4.79
2023-01-23T13:03:58.937Z,4.72
2023-01-23T13:09:17.887Z,4.65
2023-01-23T13:14:32.859Z,4.53
2023-01-23T13:20:00.904Z,4.55
2023-01-23T13:25:13.531Z,4.49
2023-01-23T13:30:41.328Z,4.53
2023-01-23T13:35:56.168Z,4.62
2023-01-23T13:41:31.926Z,4.67
2023-01-23T14:25:19.221Z,4.65
2023-01-23T14:30:26.952Z,4.68
2023-01-23T14:35:32.552Z,4.79
2023-01-23T14:40:50.593Z,4.82
2023-01-23T14:46:01.083Z,4.72
2023-01-23T14:51:07.405Z,4.66
2023-01-23T14:56:13.502Z,4.55
2023-01-23T15:01:16.957Z,4.38
2023-01-23T15:06:24.809Z,4.27
2023-01-23T15:11:30.173Z,4.14
2023-01-23T15:16:38.026Z,4.04
2023-01-23T15:21:43.063Z,3.99
2023-01-23T15:26:58.128Z,3.94
2023-01-23T15:32:02.927Z,3.87
2023-01-23T15:37:08.571Z,3.83
2023-01-23T15:42:28.036Z,3.78
2023-01-23T15:47:33.417Z,3.83
2023-01-23T15:52:48.177Z,3.77
2023-01-23T15:57:53.631Z,3.75
2023-01-23T16:02:58.213Z,3.79
2023-01-23T16:08:04.544Z,3.81
2023-01-23T16:13:13.732Z,3.77
2023-01-23T16:18:16.777Z,3.75
2023-01-23T16:23:22.885Z,3.74
2023-01-23T16:28:27.305Z,3.68
2023-01-23T16:33:30.324Z,3.68
2023-01-23T16:38:33.935Z,3.67
2023-01-23T16:43:38.351Z,3.61
2023-01-23T16:48:41.649Z,3.62
2023-01-23T16:53:50.326Z,3.58
2023-01-23T16:58:54.819Z,3.46
2023-01-23T17:04:00.237Z,3.36
2023-01-23T17:09:03.657Z,3.35
2023-01-23T17:14:11.107Z,3.32
2023-01-23T17:19:24.876Z,3.35
2023-01-23T17:24:28.200Z,3.35
2023-01-23T17:29:35.689Z,3.41
2023-01-23T17:34:48.801Z,3.41
2023-01-23T17:39:53.085Z,3.41
2023-01-23T17:45:03.255Z,3.36
2023-01-23T17:50:07.236Z,3.31
2023-01-23T17:55:15.039Z,3.35
2023-01-23T18:00:20.988Z,3.31
2023-01-23T18:05:24.095Z,3.27
2023-01-23T18:10:29.853Z,3.22
2023-01-23T18:15:43.354Z,3.20
2023-01-23T18:20:47.056Z,3.19
2023-01-23T18:25:57.233Z,3.20
2023-01-23T18:31:09.017Z,3.25
2023-01-23T18:36:31.761Z,3.26
2023-01-23T18:41:35.115Z,3.22
2023-01-23T18:46:39.950Z,3.16
2023-01-23T18:51:47.805Z,3.15
2023-01-23T18:57:02.275Z,3.16
2023-01-23T19:02:21.422Z,3.19
2023-01-23T19:07:25.052Z,3.18
2023-01-23T19:12:31.869Z,3.17
2023-01-23T19:17:44.137Z,3.13
2023-01-23T19:22:55.639Z,3.16
2023-01-23T19:28:01.123Z,3.19
2023-01-23T19:33:05.940Z,3.20
2023-01-23T19:38:08.987Z,3.22
2023-01-23T19:43:16.759Z,3.15
2023-01-23T19:48:21.268Z,3.18
2023-01-23T19:53:24.239Z,3.18
2023-01-23T19:58:27.529Z,3.18
2023-01-23T20:03:31.913Z,3.16
2023-01-23T20:08:35.314Z,3.18
2023-01-23T20:13:38.878Z,3.20
2023-01-23T20:18:43.551Z,3.11
2023-01-23T20:23:47.826Z,3.13
2023-01-23T20:28:53.368Z,3.09
2023-01-23T20:33:58.199Z,3.11
2023-01-23T20:39:03.879Z,3.05
2023-01-23T20:44:07.238Z,3.09
2023-01-23T20:49:14.376Z,3.04
2023-01-23T20:54:17.940Z,3.06
2023-01-23T20:59:23.194Z,3.10
2023-01-23T21:04:29.795Z,3.10
2023-01-23T21:09:32.867Z,3.05
2023-01-23T21:14:36.130Z,3.03
2023-01-23T21:19:41.236Z,3.02
2023-01-23T21:24:44.629Z,3.03
2023-01-23T21:29:47.780Z,3.03
2023-01-23T21:34:52.285Z,3.01
2023-01-23T21:39:55.242Z,3.01
2023-01-23T21:45:00.499Z,3.02
2023-01-23T21:50:05.551Z,3.02
2023-01-23T21:55:09.458Z,2.96
2023-01-23T22:00:32.815Z,2.98
2023-01-23T22:05:37.437Z,2.98
2023-01-23T22:10:40.674Z,2.97
2023-01-23T22:15:43.738Z,2.96
2023-01-23T22:20:48.394Z,2.92
2023-01-23T22:25:52.874Z,2.92
2023-01-23T22:30:58.063Z,2.92
2023-01-23T22:36:06.584Z,2.88
2023-01-23T22:41:15.125Z,2.90
2023-01-23T22:46:19.371Z,2.89
2023-01-23T22:51:25.775Z,2.88
2023-01-23T22:56:31.388Z,2.84
2023-01-23T23:01:36.433Z,2.90
2023-01-23T23:06:40.811Z,2.89
2023-01-23T23:11:44.799Z,2.88
2023-01-23T23:16:47.873Z,2.86
2023-01-23T23:21:52.281Z,2.90
2023-01-23T23:26:55.405Z,2.90
2023-01-23T23:32:00.917Z,2.91
2023-01-23T23:37:05.745Z,2.88
2023-01-23T23:42:08.741Z,2.89
2023-01-23T23:47:11.760Z,2.86
2023-01-23T23:52:18.270Z,2.88
2023-01-23T23:57:21.326Z,2.88
